sensor_id;sensor_type;location;lat;lon;timestamp;temperature;humidity
69464;DHT22;56665;41.106;16.688;2023-03-31T00:03:04;13.02;73.44
69464;DHT22;56665;41.106;16.688;2023-03-31T00:06:13;13.02;73.58
69464;DHT22;56665;41.106;16.688;2023-03-31T00:09:21;13.00;73.68
69464;DHT22;56665;41.106;16.688;2023-03-31T00:12:25;12.95;73.66
69464;DHT22;56665;41.106;16.688;2023-03-31T00:15:29;12.93;73.82
69464;DHT22;56665;41.106;16.688;2023-03-31T00:18:33;12.88;73.85
69464;DHT22;56665;41.106;16.688;2023-03-31T00:21:37;12.89;73.89
69464;DHT22;56665;41.106;16.688;2023-03-31T00:24:44;12.88;73.99
69464;DHT22;56665;41.106;16.688;2023-03-31T00:27:48;12.85;74.06
69464;DHT22;56665;41.106;16.688;2023-03-31T00:30:52;12.89;73.90
69464;DHT22;56665;41.106;16.688;2023-03-31T00:33:57;12.92;73.66
69464;DHT22;56665;41.106;16.688;2023-03-31T00:37:01;12.86;73.94
69464;DHT22;56665;41.106;16.688;2023-03-31T00:40:05;12.88;73.73
69464;DHT22;56665;41.106;16.688;2023-03-31T00:43:36;12.85;73.71
69464;DHT22;56665;41.106;16.688;2023-03-31T00:49:56;12.86;73.59
69464;DHT22;56665;41.106;16.688;2023-03-31T00:53:06;12.82;73.82
69464;DHT22;56665;41.106;16.688;2023-03-31T00:56:14;12.85;73.78
69464;DHT22;56665;41.106;16.688;2023-03-31T00:59:25;12.80;73.34
69464;DHT22;56665;41.106;16.688;2023-03-31T01:02:30;12.78;73.65
69464;DHT22;56665;41.106;16.688;2023-03-31T01:05:46;12.72;74.04
69464;DHT22;56665;41.106;16.688;2023-03-31T01:08:52;12.69;74.06
69464;DHT22;56665;41.106;16.688;2023-03-31T01:11:58;12.69;73.90
69464;DHT22;56665;41.106;16.688;2023-03-31T01:15:02;12.68;73.89
69464;DHT22;56665;41.106;16.688;2023-03-31T01:18:08;12.67;74.07
69464;DHT22;56665;41.106;16.688;2023-03-31T01:28:24;12.52;73.87
69464;DHT22;56665;41.106;16.688;2023-03-31T01:31:42;12.41;74.15
69464;DHT22;56665;41.106;16.688;2023-03-31T01:49:16;12.00;74.95
69464;DHT22;56665;41.106;16.688;2023-03-31T01:52:26;12.00;74.74
69464;DHT22;56665;41.106;16.688;2023-03-31T01:55:36;11.94;74.78
69464;DHT22;56665;41.106;16.688;2023-03-31T01:58:49;11.87;74.71
69464;DHT22;56665;41.106;16.688;2023-03-31T02:01:58;11.77;74.52
69464;DHT22;56665;41.106;16.688;2023-03-31T02:05:12;11.70;74.35
69464;DHT22;56665;41.106;16.688;2023-03-31T02:08:31;11.59;74.55
69464;DHT22;56665;41.106;16.688;2023-03-31T02:11:38;11.52;74.50
69464;DHT22;56665;41.106;16.688;2023-03-31T02:14:44;11.45;74.81
69464;DHT22;56665;41.106;16.688;2023-03-31T02:17:53;11.42;74.70
69464;DHT22;56665;41.106;16.688;2023-03-31T02:20:59;11.42;74.38
69464;DHT22;56665;41.106;16.688;2023-03-31T02:24:10;11.48;73.62
69464;DHT22;56665;41.106;16.688;2023-03-31T02:27:21;11.44;73.12
69464;DHT22;56665;41.106;16.688;2023-03-31T02:30:40;11.37;72.91
69464;DHT22;56665;41.106;16.688;2023-03-31T02:33:47;11.31;72.66
69464;DHT22;56665;41.106;16.688;2023-03-31T02:36:51;11.29;72.51
69464;DHT22;56665;41.106;16.688;2023-03-31T02:39:58;11.32;72.66
69464;DHT22;56665;41.106;16.688;2023-03-31T02:43:03;11.38;72.01
69464;DHT22;56665;41.106;16.688;2023-03-31T02:46:08;11.44;71.44
69464;DHT22;56665;41.106;16.688;2023-03-31T02:49:13;11.52;70.46
69464;DHT22;56665;41.106;16.688;2023-03-31T02:52:47;11.51;69.08
69464;DHT22;56665;41.106;16.688;2023-03-31T02:56:24;11.52;69.15
69464;DHT22;56665;41.106;16.688;2023-03-31T03:06:35;11.49;68.36
69464;DHT22;56665;41.106;16.688;2023-03-31T03:13:19;11.48;68.52
69464;DHT22;56665;41.106;16.688;2023-03-31T03:16:29;11.49;68.08
69464;DHT22;56665;41.106;16.688;2023-03-31T03:19:35;11.52;67.64
69464;DHT22;56665;41.106;16.688;2023-03-31T03:22:39;11.54;67.10
69464;DHT22;56665;41.106;16.688;2023-03-31T03:25:43;11.54;66.40
69464;DHT22;56665;41.106;16.688;2023-03-31T03:28:47;11.59;66.25
69464;DHT22;56665;41.106;16.688;2023-03-31T03:31:51;11.62;66.04
69464;DHT22;56665;41.106;16.688;2023-03-31T03:34:55;11.63;66.01
69464;DHT22;56665;41.106;16.688;2023-03-31T03:37:59;11.63;65.54
69464;DHT22;56665;41.106;16.688;2023-03-31T03:41:03;11.68;65.35
69464;DHT22;56665;41.106;16.688;2023-03-31T03:44:06;11.68;65.64
69464;DHT22;56665;41.106;16.688;2023-03-31T03:47:11;11.70;65.50
69464;DHT22;56665;41.106;16.688;2023-03-31T03:50:15;11.68;65.20
69464;DHT22;56665;41.106;16.688;2023-03-31T03:53:19;11.69;65.36
69464;DHT22;56665;41.106;16.688;2023-03-31T03:56:23;11.69;65.39
69464;DHT22;56665;41.106;16.688;2023-03-31T03:59:28;11.68;64.97
69464;DHT22;56665;41.106;16.688;2023-03-31T04:02:32;11.70;64.59
69464;DHT22;56665;41.106;16.688;2023-03-31T04:05:36;11.65;65.14
69464;DHT22;56665;41.106;16.688;2023-03-31T04:08:39;11.65;64.89
69464;DHT22;56665;41.106;16.688;2023-03-31T04:11:43;11.65;64.50
69464;DHT22;56665;41.106;16.688;2023-03-31T04:14:47;11.65;64.05
69464;DHT22;56665;41.106;16.688;2023-03-31T04:17:50;11.63;63.55
69464;DHT22;56665;41.106;16.688;2023-03-31T04:20:56;11.66;63.12
69464;DHT22;56665;41.106;16.688;2023-03-31T04:24:06;11.65;62.95
69464;DHT22;56665;41.106;16.688;2023-03-31T04:27:09;11.69;63.03
69464;DHT22;56665;41.106;16.688;2023-03-31T04:30:16;11.68;62.83
69464;DHT22;56665;41.106;16.688;2023-03-31T04:33:25;11.68;62.13
69464;DHT22;56665;41.106;16.688;2023-03-31T04:36:29;11.70;61.70
69464;DHT22;56665;41.106;16.688;2023-03-31T04:39:34;11.65;61.76
69464;DHT22;56665;41.106;16.688;2023-03-31T04:42:38;11.61;62.09
69464;DHT22;56665;41.106;16.688;2023-03-31T04:45:42;11.61;62.03
69464;DHT22;56665;41.106;16.688;2023-03-31T04:48:46;11.63;62.06
69464;DHT22;56665;41.106;16.688;2023-03-31T04:51:49;11.66;62.22
69464;DHT22;56665;41.106;16.688;2023-03-31T04:54:53;11.66;62.41
69464;DHT22;56665;41.106;16.688;2023-03-31T04:57:57;11.72;62.06
69464;DHT22;56665;41.106;16.688;2023-03-31T05:01:00;11.73;61.36
69464;DHT22;56665;41.106;16.688;2023-03-31T05:04:05;11.76;60.89
69464;DHT22;56665;41.106;16.688;2023-03-31T05:07:08;11.70;61.35
69464;DHT22;56665;41.106;16.688;2023-03-31T05:10:15;11.79;62.03
69464;DHT22;56665;41.106;16.688;2023-03-31T05:13:20;11.76;62.48
69464;DHT22;56665;41.106;16.688;2023-03-31T05:16:23;11.83;62.79
69464;DHT22;56665;41.106;16.688;2023-03-31T05:19:27;11.89;62.30
69464;DHT22;56665;41.106;16.688;2023-03-31T05:22:33;11.99;62.48
69464;DHT22;56665;41.106;16.688;2023-03-31T05:25:37;12.07;62.00
69464;DHT22;56665;41.106;16.688;2023-03-31T05:28:41;12.13;61.80
69464;DHT22;56665;41.106;16.688;2023-03-31T05:31:45;12.18;61.92
69464;DHT22;56665;41.106;16.688;2023-03-31T05:34:49;12.34;61.37
69464;DHT22;56665;41.106;16.688;2023-03-31T05:37:55;12.42;61.08
69464;DHT22;56665;41.106;16.688;2023-03-31T05:40:58;12.42;61.51
69464;DHT22;56665;41.106;16.688;2023-03-31T05:44:02;12.54;61.98
69464;DHT22;56665;41.106;16.688;2023-03-31T05:47:06;12.78;62.62
69464;DHT22;56665;41.106;16.688;2023-03-31T05:50:11;12.93;61.74
69464;DHT22;56665;41.106;16.688;2023-03-31T05:53:15;13.13;61.17
69464;DHT22;56665;41.106;16.688;2023-03-31T05:56:20;13.47;60.39
69464;DHT22;56665;41.106;16.688;2023-03-31T05:59:24;13.85;59.30
69464;DHT22;56665;41.106;16.688;2023-03-31T06:02:28;14.19;58.63
69464;DHT22;56665;41.106;16.688;2023-03-31T06:05:34;14.56;56.93
69464;DHT22;56665;41.106;16.688;2023-03-31T06:08:38;14.85;56.05
69464;DHT22;56665;41.106;16.688;2023-03-31T06:11:43;15.18;56.19
69464;DHT22;56665;41.106;16.688;2023-03-31T06:14:48;15.55;54.71
69464;DHT22;56665;41.106;16.688;2023-03-31T06:17:51;16.04;53.46
69464;DHT22;56665;41.106;16.688;2023-03-31T06:20:56;16.46;51.93
69464;DHT22;56665;41.106;16.688;2023-03-31T06:24:00;16.77;50.46
69464;DHT22;56665;41.106;16.688;2023-03-31T06:27:05;17.13;48.81
69464;DHT22;56665;41.106;16.688;2023-03-31T06:30:13;17.64;47.50
69464;DHT22;56665;41.106;16.688;2023-03-31T06:33:16;18.27;45.95
69464;DHT22;56665;41.106;16.688;2023-03-31T06:36:21;18.81;44.16
69464;DHT22;56665;41.106;16.688;2023-03-31T06:39:25;19.16;43.20
69464;DHT22;56665;41.106;16.688;2023-03-31T06:42:30;19.30;43.17
69464;DHT22;56665;41.106;16.688;2023-03-31T06:45:36;18.94;41.70
69464;DHT22;56665;41.106;16.688;2023-03-31T06:48:41;19.02;41.57
69464;DHT22;56665;41.106;16.688;2023-03-31T06:51:47;19.37;41.37
69464;DHT22;56665;41.106;16.688;2023-03-31T06:54:51;19.33;41.65
69464;DHT22;56665;41.106;16.688;2023-03-31T06:57:57;19.08;42.74
69464;DHT22;56665;41.106;16.688;2023-03-31T07:01:02;18.94;42.84
69464;DHT22;56665;41.106;16.688;2023-03-31T07:04:06;18.56;43.76
69464;DHT22;56665;41.106;16.688;2023-03-31T07:07:10;18.88;43.60
69464;DHT22;56665;41.106;16.688;2023-03-31T07:10:14;19.47;42.68
69464;DHT22;56665;41.106;16.688;2023-03-31T07:13:20;19.98;40.79
69464;DHT22;56665;41.106;16.688;2023-03-31T07:16:24;20.42;39.92
69464;DHT22;56665;41.106;16.688;2023-03-31T07:19:28;20.72;38.93
69464;DHT22;56665;41.106;16.688;2023-03-31T07:22:33;21.06;38.91
69464;DHT22;56665;41.106;16.688;2023-03-31T07:25:37;21.27;38.27
69464;DHT22;56665;41.106;16.688;2023-03-31T07:28:41;21.49;37.46
69464;DHT22;56665;41.106;16.688;2023-03-31T07:31:46;21.92;37.51
69464;DHT22;56665;41.106;16.688;2023-03-31T07:34:50;22.27;37.45
69464;DHT22;56665;41.106;16.688;2023-03-31T07:37:56;22.58;37.37
69464;DHT22;56665;41.106;16.688;2023-03-31T07:41:02;22.72;37.02
69464;DHT22;56665;41.106;16.688;2023-03-31T07:44:06;22.81;36.49
69464;DHT22;56665;41.106;16.688;2023-03-31T07:47:10;23.23;35.94
69464;DHT22;56665;41.106;16.688;2023-03-31T07:50:14;23.60;35.42
69464;DHT22;56665;41.106;16.688;2023-03-31T07:53:21;23.95;35.39
69464;DHT22;56665;41.106;16.688;2023-03-31T07:56:24;24.14;35.00
69464;DHT22;56665;41.106;16.688;2023-03-31T07:59:29;24.31;34.64
69464;DHT22;56665;41.106;16.688;2023-03-31T08:02:34;24.39;34.59
69464;DHT22;56665;41.106;16.688;2023-03-31T08:05:40;24.35;34.56
69464;DHT22;56665;41.106;16.688;2023-03-31T08:08:44;24.35;35.00
69464;DHT22;56665;41.106;16.688;2023-03-31T08:11:47;24.62;34.78
69464;DHT22;56665;41.106;16.688;2023-03-31T08:14:51;25.06;33.98
69464;DHT22;56665;41.106;16.688;2023-03-31T08:17:57;24.91;34.22
69464;DHT22;56665;41.106;16.688;2023-03-31T08:21:02;24.84;34.72
69464;DHT22;56665;41.106;16.688;2023-03-31T08:24:07;25.07;34.82
69464;DHT22;56665;41.106;16.688;2023-03-31T08:27:12;25.51;34.24
69464;DHT22;56665;41.106;16.688;2023-03-31T08:30:18;25.68;32.32
69464;DHT22;56665;41.106;16.688;2023-03-31T08:33:22;25.73;32.17
69464;DHT22;56665;41.106;16.688;2023-03-31T08:36:12;26.06;32.66
69464;DHT22;56665;41.106;16.688;2023-03-31T08:39:16;26.16;33.01
69464;DHT22;56665;41.106;16.688;2023-03-31T08:42:35;26.23;30.55
69464;DHT22;56665;41.106;16.688;2023-03-31T08:45:41;26.50;29.55
69464;DHT22;56665;41.106;16.688;2023-03-31T08:48:53;26.81;28.43
69464;DHT22;56665;41.106;16.688;2023-03-31T08:52:01;27.27;26.53
69464;DHT22;56665;41.106;16.688;2023-03-31T08:55:24;27.81;27.06
69464;DHT22;56665;41.106;16.688;2023-03-31T08:58:44;28.15;26.57
69464;DHT22;56665;41.106;16.688;2023-03-31T09:02:15;28.83;25.54
69464;DHT22;56665;41.106;16.688;2023-03-31T09:05:26;29.20;25.04
69464;DHT22;56665;41.106;16.688;2023-03-31T09:08:37;29.42;24.57
69464;DHT22;56665;41.106;16.688;2023-03-31T09:11:50;29.45;24.78
69464;DHT22;56665;41.106;16.688;2023-03-31T09:15:03;29.35;25.12
69464;DHT22;56665;41.106;16.688;2023-03-31T09:21:34;28.83;25.60
69464;DHT22;56665;41.106;16.688;2023-03-31T09:25:09;28.82;25.50
69464;DHT22;56665;41.106;16.688;2023-03-31T09:28:22;28.73;26.11
69464;DHT22;56665;41.106;16.688;2023-03-31T09:31:28;28.62;26.30
69464;DHT22;56665;41.106;16.688;2023-03-31T09:34:33;28.53;25.86
69464;DHT22;56665;41.106;16.688;2023-03-31T09:37:36;28.08;30.61
69464;DHT22;56665;41.106;16.688;2023-03-31T09:40:41;27.59;33.24
69464;DHT22;56665;41.106;16.688;2023-03-31T09:43:46;27.46;33.99
69464;DHT22;56665;41.106;16.688;2023-03-31T09:46:50;26.07;36.51
69464;DHT22;56665;41.106;16.688;2023-03-31T09:49:55;26.60;35.98
69464;DHT22;56665;41.106;16.688;2023-03-31T09:52:59;26.92;35.65
69464;DHT22;56665;41.106;16.688;2023-03-31T09:56:06;26.55;36.33
69464;DHT22;56665;41.106;16.688;2023-03-31T09:59:33;26.67;36.36
69464;DHT22;56665;41.106;16.688;2023-03-31T10:02:38;26.78;35.88
69464;DHT22;56665;41.106;16.688;2023-03-31T10:05:51;25.72;36.72
69464;DHT22;56665;41.106;16.688;2023-03-31T10:09:00;25.08;37.81
69464;DHT22;56665;41.106;16.688;2023-03-31T10:12:07;25.14;37.66
69464;DHT22;56665;41.106;16.688;2023-03-31T10:15:24;24.02;39.47
69464;DHT22;56665;41.106;16.688;2023-03-31T10:18:34;24.26;38.72
69464;DHT22;56665;41.106;16.688;2023-03-31T10:21:38;23.36;39.51
69464;DHT22;56665;41.106;16.688;2023-03-31T10:24:43;22.99;41.24
69464;DHT22;56665;41.106;16.688;2023-03-31T10:27:54;23.13;41.17
69464;DHT22;56665;41.106;16.688;2023-03-31T10:30:59;23.46;41.21
69464;DHT22;56665;41.106;16.688;2023-03-31T10:34:13;23.71;40.70
69464;DHT22;56665;41.106;16.688;2023-03-31T10:37:22;23.25;41.77
69464;DHT22;56665;41.106;16.688;2023-03-31T10:40:28;23.81;41.05
69464;DHT22;56665;41.106;16.688;2023-03-31T10:43:53;24.05;40.76
69464;DHT22;56665;41.106;16.688;2023-03-31T10:47:04;23.05;42.42
69464;DHT22;56665;41.106;16.688;2023-03-31T10:50:14;22.88;42.48
69464;DHT22;56665;41.106;16.688;2023-03-31T10:53:19;22.27;43.68
69464;DHT22;56665;41.106;16.688;2023-03-31T10:56:42;22.43;43.43
69464;DHT22;56665;41.106;16.688;2023-03-31T11:06:53;22.76;42.66
69464;DHT22;56665;41.106;16.688;2023-03-31T11:17:17;23.09;41.99
69464;DHT22;56665;41.106;16.688;2023-03-31T11:24:04;23.00;42.13
69464;DHT22;56665;41.106;16.688;2023-03-31T11:40:53;22.84;40.22
69464;DHT22;56665;41.106;16.688;2023-03-31T11:44:15;22.82;40.39
69464;DHT22;56665;41.106;16.688;2023-03-31T11:47:24;22.27;41.61
69464;DHT22;56665;41.106;16.688;2023-03-31T11:50:33;22.61;41.17
69464;DHT22;56665;41.106;16.688;2023-03-31T11:53:43;22.67;41.12
69464;DHT22;56665;41.106;16.688;2023-03-31T11:56:48;22.64;40.83
69464;DHT22;56665;41.106;16.688;2023-03-31T12:00:19;22.64;41.35
69464;DHT22;56665;41.106;16.688;2023-03-31T12:03:30;22.44;41.62
69464;DHT22;56665;41.106;16.688;2023-03-31T12:06:40;22.50;41.51
69464;DHT22;56665;41.106;16.688;2023-03-31T12:16:42;22.17;41.37
69464;DHT22;56665;41.106;16.688;2023-03-31T12:19:53;22.12;41.19
69464;DHT22;56665;41.106;16.688;2023-03-31T12:23:01;22.16;40.63
69464;DHT22;56665;41.106;16.688;2023-03-31T12:29:32;22.60;39.33
69464;DHT22;56665;41.106;16.688;2023-03-31T12:32:53;22.84;39.12
69464;DHT22;56665;41.106;16.688;2023-03-31T13:09:44;22.76;40.01
69464;DHT22;56665;41.106;16.688;2023-03-31T13:16:06;22.72;40.70
69464;DHT22;56665;41.106;16.688;2023-03-31T13:19:12;22.63;41.11
69464;DHT22;56665;41.106;16.688;2023-03-31T13:22:36;22.64;42.45
69464;DHT22;56665;41.106;16.688;2023-03-31T13:25:52;22.58;43.31
69464;DHT22;56665;41.106;16.688;2023-03-31T13:32:24;22.31;44.83
69464;DHT22;56665;41.106;16.688;2023-03-31T13:35:30;22.23;45.48
69464;DHT22;56665;41.106;16.688;2023-03-31T13:52:29;22.21;49.11
69464;DHT22;56665;41.106;16.688;2023-03-31T14:05:36;23.12;50.40
69464;DHT22;56665;41.106;16.688;2023-03-31T14:08:49;22.91;51.20
69464;DHT22;56665;41.106;16.688;2023-03-31T14:11:58;22.72;51.87
69464;DHT22;56665;41.106;16.688;2023-03-31T14:15:04;22.86;51.68
69464;DHT22;56665;41.106;16.688;2023-03-31T14:18:12;22.94;52.01
69464;DHT22;56665;41.106;16.688;2023-03-31T14:24:49;22.51;53.09
69464;DHT22;56665;41.106;16.688;2023-03-31T14:35:31;23.11;52.17
69464;DHT22;56665;41.106;16.688;2023-03-31T14:38:42;23.29;51.77
69464;DHT22;56665;41.106;16.688;2023-03-31T14:41:55;23.63;50.87
69464;DHT22;56665;41.106;16.688;2023-03-31T14:45:03;24.05;48.04
69464;DHT22;56665;41.106;16.688;2023-03-31T14:48:13;24.46;45.73
69464;DHT22;56665;41.106;16.688;2023-03-31T14:51:28;24.63;46.96
69464;DHT22;56665;41.106;16.688;2023-03-31T14:54:35;24.79;39.58
69464;DHT22;56665;41.106;16.688;2023-03-31T14:57:43;24.94;38.24
69464;DHT22;56665;41.106;16.688;2023-03-31T15:00:46;25.07;36.27
69464;DHT22;56665;41.106;16.688;2023-03-31T15:03:52;25.06;35.82
69464;DHT22;56665;41.106;16.688;2023-03-31T15:06:59;24.90;35.38
69464;DHT22;56665;41.106;16.688;2023-03-31T15:10:04;24.66;35.05
69464;DHT22;56665;41.106;16.688;2023-03-31T15:13:14;24.36;35.90
69464;DHT22;56665;41.106;16.688;2023-03-31T15:16:34;23.97;36.67
69464;DHT22;56665;41.106;16.688;2023-03-31T15:19:38;23.57;37.42
69464;DHT22;56665;41.106;16.688;2023-03-31T15:22:41;23.29;37.88
69464;DHT22;56665;41.106;16.688;2023-03-31T15:25:47;23.07;38.10
69464;DHT22;56665;41.106;16.688;2023-03-31T15:29:06;22.76;38.53
69464;DHT22;56665;41.106;16.688;2023-03-31T15:32:36;22.63;39.15
69464;DHT22;56665;41.106;16.688;2023-03-31T15:35:40;22.53;39.33
69464;DHT22;56665;41.106;16.688;2023-03-31T15:38:43;22.40;39.32
69464;DHT22;56665;41.106;16.688;2023-03-31T15:41:48;22.35;39.65
69464;DHT22;56665;41.106;16.688;2023-03-31T15:44:56;22.34;40.18
69464;DHT22;56665;41.106;16.688;2023-03-31T15:48:15;22.26;41.45
69464;DHT22;56665;41.106;16.688;2023-03-31T15:51:29;22.20;42.25
69464;DHT22;56665;41.106;16.688;2023-03-31T15:54:39;22.13;42.83
69464;DHT22;56665;41.106;16.688;2023-03-31T15:57:44;22.12;42.67
69464;DHT22;56665;41.106;16.688;2023-03-31T16:00:53;22.04;42.49
69464;DHT22;56665;41.106;16.688;2023-03-31T16:04:09;21.92;42.58
69464;DHT22;56665;41.106;16.688;2023-03-31T16:07:25;21.76;42.90
69464;DHT22;56665;41.106;16.688;2023-03-31T16:10:30;21.66;43.65
69464;DHT22;56665;41.106;16.688;2023-03-31T16:13:40;21.56;44.50
69464;DHT22;56665;41.106;16.688;2023-03-31T16:16:49;21.45;45.07
69464;DHT22;56665;41.106;16.688;2023-03-31T16:19:58;21.39;45.41
69464;DHT22;56665;41.106;16.688;2023-03-31T16:23:13;21.22;45.83
69464;DHT22;56665;41.106;16.688;2023-03-31T16:26:22;21.11;46.38
69464;DHT22;56665;41.106;16.688;2023-03-31T16:29:28;20.96;47.07
69464;DHT22;56665;41.106;16.688;2023-03-31T16:32:32;20.83;48.31
69464;DHT22;56665;41.106;16.688;2023-03-31T16:35:39;20.69;51.08
69464;DHT22;56665;41.106;16.688;2023-03-31T16:38:43;20.55;52.98
69464;DHT22;56665;41.106;16.688;2023-03-31T16:41:47;20.46;54.68
69464;DHT22;56665;41.106;16.688;2023-03-31T16:44:52;20.33;55.72
69464;DHT22;56665;41.106;16.688;2023-03-31T16:47:57;20.25;56.27
69464;DHT22;56665;41.106;16.688;2023-03-31T16:51:02;20.15;57.08
69464;DHT22;56665;41.106;16.688;2023-03-31T16:54:06;20.00;57.55
69464;DHT22;56665;41.106;16.688;2023-03-31T16:57:12;19.87;58.33
69464;DHT22;56665;41.106;16.688;2023-03-31T17:00:16;19.70;58.73
69464;DHT22;56665;41.106;16.688;2023-03-31T17:03:20;19.57;59.00
69464;DHT22;56665;41.106;16.688;2023-03-31T17:06:24;19.46;59.42
69464;DHT22;56665;41.106;16.688;2023-03-31T17:09:28;19.36;60.02
69464;DHT22;56665;41.106;16.688;2023-03-31T17:12:32;19.22;60.37
69464;DHT22;56665;41.106;16.688;2023-03-31T17:15:36;19.13;60.56
69464;DHT22;56665;41.106;16.688;2023-03-31T17:18:39;19.05;60.71
69464;DHT22;56665;41.106;16.688;2023-03-31T17:21:44;19.03;60.44
69464;DHT22;56665;41.106;16.688;2023-03-31T17:24:48;19.06;60.27
69464;DHT22;56665;41.106;16.688;2023-03-31T17:27:55;19.08;59.95
69464;DHT22;56665;41.106;16.688;2023-03-31T17:30:58;19.13;60.63
69464;DHT22;56665;41.106;16.688;2023-03-31T17:34:02;19.10;60.35
69464;DHT22;56665;41.106;16.688;2023-03-31T17:37:06;19.10;60.03
69464;DHT22;56665;41.106;16.688;2023-03-31T17:40:11;19.05;59.74
69464;DHT22;56665;41.106;16.688;2023-03-31T17:43:15;18.99;59.93
69464;DHT22;56665;41.106;16.688;2023-03-31T17:46:20;18.95;60.12
69464;DHT22;56665;41.106;16.688;2023-03-31T17:49:24;18.89;60.46
69464;DHT22;56665;41.106;16.688;2023-03-31T17:52:29;18.79;60.99
69464;DHT22;56665;41.106;16.688;2023-03-31T17:55:35;18.77;61.24
69464;DHT22;56665;41.106;16.688;2023-03-31T17:58:40;18.72;61.95
69464;DHT22;56665;41.106;16.688;2023-03-31T18:01:44;18.78;61.42
69464;DHT22;56665;41.106;16.688;2023-03-31T18:04:49;18.72;61.67
69464;DHT22;56665;41.106;16.688;2023-03-31T18:07:53;18.75;62.38
69464;DHT22;56665;41.106;16.688;2023-03-31T18:10:58;18.74;62.15
69464;DHT22;56665;41.106;16.688;2023-03-31T18:14:02;18.72;62.72
69464;DHT22;56665;41.106;16.688;2023-03-31T18:17:05;18.71;62.46
69464;DHT22;56665;41.106;16.688;2023-03-31T18:20:10;18.72;62.74
69464;DHT22;56665;41.106;16.688;2023-03-31T18:23:14;18.75;62.82
69464;DHT22;56665;41.106;16.688;2023-03-31T18:26:23;18.74;63.01
69464;DHT22;56665;41.106;16.688;2023-03-31T18:29:27;18.81;63.03
69464;DHT22;56665;41.106;16.688;2023-03-31T18:32:31;18.84;62.10
69464;DHT22;56665;41.106;16.688;2023-03-31T18:35:35;18.79;62.85
69464;DHT22;56665;41.106;16.688;2023-03-31T18:38:38;18.74;63.76
69464;DHT22;56665;41.106;16.688;2023-03-31T18:41:46;18.65;63.92
69464;DHT22;56665;41.106;16.688;2023-03-31T18:44:52;18.57;64.44
69464;DHT22;56665;41.106;16.688;2023-03-31T18:47:56;18.56;63.98
69464;DHT22;56665;41.106;16.688;2023-03-31T18:51:00;18.57;64.53
69464;DHT22;56665;41.106;16.688;2023-03-31T18:54:04;18.53;63.57
69464;DHT22;56665;41.106;16.688;2023-03-31T18:57:08;18.54;63.81
69464;DHT22;56665;41.106;16.688;2023-03-31T19:00:12;18.47;63.65
69464;DHT22;56665;41.106;16.688;2023-03-31T19:03:17;18.46;63.72
69464;DHT22;56665;41.106;16.688;2023-03-31T19:06:20;18.33;64.07
69464;DHT22;56665;41.106;16.688;2023-03-31T19:09:25;18.28;64.21
69464;DHT22;56665;41.106;16.688;2023-03-31T19:12:31;18.26;64.28
69464;DHT22;56665;41.106;16.688;2023-03-31T19:15:35;18.17;64.28
69464;DHT22;56665;41.106;16.688;2023-03-31T19:18:39;18.14;63.72
69464;DHT22;56665;41.106;16.688;2023-03-31T19:21:43;18.03;64.07
69464;DHT22;56665;41.106;16.688;2023-03-31T19:24:48;17.99;64.88
69464;DHT22;56665;41.106;16.688;2023-03-31T19:27:52;17.93;64.29
69464;DHT22;56665;41.106;16.688;2023-03-31T19:30:57;17.89;64.92
69464;DHT22;56665;41.106;16.688;2023-03-31T19:34:01;17.85;64.79
69464;DHT22;56665;41.106;16.688;2023-03-31T19:37:06;17.75;64.53
69464;DHT22;56665;41.106;16.688;2023-03-31T19:40:10;17.69;65.43
69464;DHT22;56665;41.106;16.688;2023-03-31T19:43:17;17.57;64.56
69464;DHT22;56665;41.106;16.688;2023-03-31T19:46:23;17.45;64.89
69464;DHT22;56665;41.106;16.688;2023-03-31T19:49:27;17.47;65.26
69464;DHT22;56665;41.106;16.688;2023-03-31T19:52:31;17.41;65.31
69464;DHT22;56665;41.106;16.688;2023-03-31T19:55:35;17.37;65.56
69464;DHT22;56665;41.106;16.688;2023-03-31T19:58:42;17.34;64.99
69464;DHT22;56665;41.106;16.688;2023-03-31T20:01:47;17.11;65.43
69464;DHT22;56665;41.106;16.688;2023-03-31T20:04:50;17.21;66.16
69464;DHT22;56665;41.106;16.688;2023-03-31T20:07:56;17.20;65.35
69464;DHT22;56665;41.106;16.688;2023-03-31T20:11:05;17.18;66.00
69464;DHT22;56665;41.106;16.688;2023-03-31T20:14:09;17.17;66.46
69464;DHT22;56665;41.106;16.688;2023-03-31T20:17:13;17.11;66.23
69464;DHT22;56665;41.106;16.688;2023-03-31T20:20:17;17.08;66.39
69464;DHT22;56665;41.106;16.688;2023-03-31T20:23:21;17.08;66.47
69464;DHT22;56665;41.106;16.688;2023-03-31T20:26:28;17.10;66.95
69464;DHT22;56665;41.106;16.688;2023-03-31T20:29:32;17.04;66.89
69464;DHT22;56665;41.106;16.688;2023-03-31T20:32:37;17.06;67.39
69464;DHT22;56665;41.106;16.688;2023-03-31T20:35:41;17.08;67.29
69464;DHT22;56665;41.106;16.688;2023-03-31T20:38:47;17.04;67.35
69464;DHT22;56665;41.106;16.688;2023-03-31T20:41:53;16.99;67.44
69464;DHT22;56665;41.106;16.688;2023-03-31T20:44:57;16.97;67.55
69464;DHT22;56665;41.106;16.688;2023-03-31T20:48:01;16.87;67.93
69464;DHT22;56665;41.106;16.688;2023-03-31T20:51:08;16.79;68.18
69464;DHT22;56665;41.106;16.688;2023-03-31T20:54:12;16.63;68.20
69464;DHT22;56665;41.106;16.688;2023-03-31T20:57:16;16.58;68.85
69464;DHT22;56665;41.106;16.688;2023-03-31T21:00:20;16.46;68.21
69464;DHT22;56665;41.106;16.688;2023-03-31T21:03:25;16.48;69.20
69464;DHT22;56665;41.106;16.688;2023-03-31T21:06:35;16.44;69.27
69464;DHT22;56665;41.106;16.688;2023-03-31T21:09:39;16.53;69.29
69464;DHT22;56665;41.106;16.688;2023-03-31T21:12:43;16.55;69.97
69464;DHT22;56665;41.106;16.688;2023-03-31T21:15:48;16.56;69.18
69464;DHT22;56665;41.106;16.688;2023-03-31T21:18:52;16.53;68.53
69464;DHT22;56665;41.106;16.688;2023-03-31T21:22:01;16.48;68.05
69464;DHT22;56665;41.106;16.688;2023-03-31T21:25:05;16.42;68.37
69464;DHT22;56665;41.106;16.688;2023-03-31T21:28:09;16.31;68.13
69464;DHT22;56665;41.106;16.688;2023-03-31T21:31:15;16.34;67.77
69464;DHT22;56665;41.106;16.688;2023-03-31T21:34:20;16.34;67.44
69464;DHT22;56665;41.106;16.688;2023-03-31T21:37:24;16.35;67.42
69464;DHT22;56665;41.106;16.688;2023-03-31T21:40:30;16.41;67.12
69464;DHT22;56665;41.106;16.688;2023-03-31T21:43:33;16.37;67.11
69464;DHT22;56665;41.106;16.688;2023-03-31T21:46:37;16.34;67.34
69464;DHT22;56665;41.106;16.688;2023-03-31T21:49:41;16.35;67.39
69464;DHT22;56665;41.106;16.688;2023-03-31T21:52:45;16.35;67.35
69464;DHT22;56665;41.106;16.688;2023-03-31T21:55:49;16.25;67.05
69464;DHT22;56665;41.106;16.688;2023-03-31T21:58:57;16.22;66.84